Time;durP1;ratioP1;P1;durP2;ratioP2;P2;SDS_P1;SDS_P2;PMS_P1;PMS_P2;Temp;Humidity;BMP_temperature;BMP_pressure;BME280_temperature;BME280_humidity;BME280_pressure;Samples;Min_cycle;Max_cycle;Signal;HPM_P1;HPM_P2
2022/08/13 00:00:00;;;;;;;;;5.75;5.75;;;;;;;;4973929;28;45513;-63
2022/08/13 00:02:26;;;;;;;;;7.00;7.00;;;;;;;;4973650;28;45390;-63
2022/08/13 00:04:56;;;;;;;;;5.25;5.25;;;;;;;;4974059;28;45405;-63
2022/08/13 00:07:21;;;;;;;;;7.75;7.75;;;;;;;;4973774;28;45505;-63
2022/08/13 00:09:46;;;;;;;;;6.50;6.25;;;;;;;;4973585;28;45432;-63
2022/08/13 00:15:04;;;;;;;;;6.00;6.00;;;;;;;;4968275;28;45493;-62
2022/08/13 00:17:33;;;;;;;;;8.00;8.00;;;;;;;;4952673;28;46907;-63
2022/08/13 00:19:58;;;;;;;;;7.40;7.40;;;;;;;;4972129;28;45337;-63
2022/08/13 00:22:25;;;;;;;;;6.50;6.00;;;;;;;;4973904;28;45355;-62
2022/08/13 00:24:50;;;;;;;;;8.00;7.00;;;;;;;;4973614;28;45398;-63
2022/08/13 00:27:15;;;;;;;;;6.25;6.25;;;;;;;;4971978;28;46602;-63
2022/08/13 00:29:41;;;;;;;;;6.00;6.00;;;;;;;;4974229;28;45600;-63
2022/08/13 00:32:06;;;;;;;;;8.50;7.00;;;;;;;;4973382;28;45439;-63
2022/08/13 00:34:31;;;;;;;;;7.00;7.00;;;;;;;;4973395;28;45438;-63
2022/08/13 00:36:56;;;;;;;;;5.25;5.25;;;;;;;;4973419;28;46184;-62
2022/08/13 00:39:22;;;;;;;;;6.25;6.25;;;;;;;;4973719;28;45385;-62
2022/08/13 00:41:47;;;;;;;;;6.00;6.00;;;;;;;;4973516;28;45395;-62
2022/08/13 00:44:14;;;;;;;;;7.50;6.00;;;;;;;;4971812;28;45545;-62
2022/08/13 00:46:41;;;;;;;;;7.75;7.75;;;;;;;;4973168;28;46153;-62
2022/08/13 00:49:07;;;;;;;;;8.20;5.40;;;;;;;;4973272;28;45495;-63
2022/08/13 00:51:33;;;;;;;;;8.75;6.50;;;;;;;;4973420;28;45387;-62
2022/08/13 00:54:00;;;;;;;;;7.00;7.00;;;;;;;;4973166;28;45400;-62
2022/08/13 00:56:26;;;;;;;;;7.00;7.00;;;;;;;;4972641;28;45398;-62
2022/08/13 00:58:52;;;;;;;;;9.50;7.00;;;;;;;;4959283;28;45480;-62
2022/08/13 01:01:25;;;;;;;;;7.00;7.00;;;;;;;;4953607;28;45413;-63
2022/08/13 01:03:50;;;;;;;;;7.25;7.25;;;;;;;;4952282;28;45478;-63
2022/08/13 01:06:16;;;;;;;;;7.00;7.00;;;;;;;;4954567;28;46021;-63
2022/08/13 01:08:41;;;;;;;;;7.50;6.50;;;;;;;;4953422;28;45424;-63
2022/08/13 01:11:08;;;;;;;;;6.00;6.00;;;;;;;;4961750;28;45464;-63
2022/08/13 01:13:34;;;;;;;;;8.00;6.50;;;;;;;;4976209;28;45528;-62
2022/08/13 01:16:00;;;;;;;;;8.50;7.50;;;;;;;;4976107;28;46206;-62
2022/08/13 01:18:26;;;;;;;;;6.20;6.20;;;;;;;;4975444;28;45557;-63
2022/08/13 01:21:00;;;;;;;;;6.25;6.25;;;;;;;;4974920;28;45480;-63
2022/08/13 01:23:28;;;;;;;;;7.50;6.00;;;;;;;;4976114;28;45403;-63
2022/08/13 01:25:54;;;;;;;;;7.00;5.50;;;;;;;;4975602;28;46175;-63
2022/08/13 01:28:22;;;;;;;;;5.00;5.00;;;;;;;;4973993;28;45522;-62
2022/08/13 01:30:50;;;;;;;;;5.50;5.50;;;;;;;;4974693;28;45484;-62
2022/08/13 01:33:17;;;;;;;;;6.75;6.75;;;;;;;;4975559;28;45399;-63
2022/08/13 01:35:43;;;;;;;;;7.50;7.50;;;;;;;;4975615;28;45461;-63
2022/08/13 01:38:08;;;;;;;;;8.00;8.00;;;;;;;;4975427;28;45461;-63
2022/08/13 01:40:34;;;;;;;;;5.50;5.50;;;;;;;;4974431;28;45422;-64
2022/08/13 01:43:00;;;;;;;;;6.00;6.00;;;;;;;;4975465;28;45502;-64
2022/08/13 01:45:26;;;;;;;;;5.25;5.25;;;;;;;;4973642;28;46127;-63
2022/08/13 01:50:36;;;;;;;;;6.25;6.00;;;;;;;;4975366;28;45425;-64
2022/08/13 01:53:04;;;;;;;;;6.00;6.00;;;;;;;;4956664;28;45486;-64
2022/08/13 01:55:37;;;;;;;;;6.50;6.50;;;;;;;;4955991;28;46025;-64
2022/08/13 01:58:03;;;;;;;;;5.20;5.20;;;;;;;;4954590;28;45520;-63
2022/08/13 02:00:30;;;;;;;;;6.00;6.00;;;;;;;;4956177;28;45565;-64
2022/08/13 02:02:56;;;;;;;;;6.75;5.25;;;;;;;;4955693;28;45410;-64
2022/08/13 02:05:23;;;;;;;;;6.00;6.00;;;;;;;;4955813;28;45389;-64
2022/08/13 02:07:50;;;;;;;;;10.50;7.00;;;;;;;;4955629;28;45443;-64
2022/08/13 02:10:19;;;;;;;;;7.00;7.00;;;;;;;;4955691;28;45559;-64
2022/08/13 02:12:46;;;;;;;;;6.25;6.25;;;;;;;;4956538;28;45419;-64
2022/08/13 02:15:12;;;;;;;;;6.25;6.25;;;;;;;;4955385;28;45424;-64
2022/08/13 02:17:41;;;;;;;;;9.80;6.40;;;;;;;;4955224;28;45325;-64
2022/08/13 02:20:07;;;;;;;;;7.75;7.50;;;;;;;;4955716;28;45499;-64
2022/08/13 02:22:33;;;;;;;;;6.00;6.00;;;;;;;;4954210;28;45490;-64
2022/08/13 02:24:59;;;;;;;;;8.00;8.00;;;;;;;;4955610;28;45980;-64
2022/08/13 02:27:25;;;;;;;;;6.50;6.50;;;;;;;;4956525;28;45449;-64
2022/08/13 02:29:52;;;;;;;;;7.25;7.25;;;;;;;;4956085;28;45426;-64
2022/08/13 02:32:17;;;;;;;;;6.25;6.25;;;;;;;;4955351;28;45382;-63
2022/08/13 02:34:47;;;;;;;;;6.75;6.75;;;;;;;;4955148;28;45408;-63
2022/08/13 02:37:14;;;;;;;;;7.00;7.00;;;;;;;;4954046;28;45475;-64
2022/08/13 02:39:39;;;;;;;;;7.00;6.00;;;;;;;;4957372;28;45374;-64
2022/08/13 02:42:05;;;;;;;;;8.00;8.00;;;;;;;;4974945;28;45284;-64
2022/08/13 02:44:31;;;;;;;;;7.00;7.00;;;;;;;;4974420;28;46303;-64
2022/08/13 02:46:56;;;;;;;;;7.50;6.50;;;;;;;;4974822;28;45474;-63
2022/08/13 02:49:21;;;;;;;;;6.50;6.50;;;;;;;;4974920;28;45386;-63
2022/08/13 02:51:47;;;;;;;;;7.25;7.25;;;;;;;;4974971;28;45377;-64
2022/08/13 02:54:16;;;;;;;;;6.50;6.50;;;;;;;;4974256;28;45622;-63
2022/08/13 02:56:42;;;;;;;;;7.00;7.00;;;;;;;;4955426;28;45537;-63
2022/08/13 02:59:10;;;;;;;;;8.50;6.75;;;;;;;;4955436;28;45426;-64
2022/08/13 03:01:36;;;;;;;;;7.00;7.00;;;;;;;;4955303;28;45611;-63
2022/08/13 03:04:02;;;;;;;;;7.00;5.25;;;;;;;;4955360;28;45387;-63
2022/08/13 03:06:27;;;;;;;;;7.00;7.00;;;;;;;;4954990;28;45473;-63
2022/08/13 03:08:52;;;;;;;;;6.25;6.25;;;;;;;;4955217;28;45431;-64
2022/08/13 03:11:18;;;;;;;;;6.50;6.50;;;;;;;;4974278;28;45423;-64
2022/08/13 03:13:47;;;;;;;;;6.00;6.00;;;;;;;;4974202;28;45379;-63
2022/08/13 03:16:16;;;;;;;;;8.00;8.00;;;;;;;;4974357;28;45466;-64
2022/08/13 03:18:42;;;;;;;;;7.25;7.25;;;;;;;;4973115;28;45441;-63
2022/08/13 03:21:07;;;;;;;;;7.75;7.00;;;;;;;;4974871;28;45664;-64
2022/08/13 03:23:32;;;;;;;;;6.75;6.75;;;;;;;;4962344;28;45965;-64
2022/08/13 03:25:57;;;;;;;;;8.50;8.50;;;;;;;;4954896;28;45444;-64
2022/08/13 03:28:23;;;;;;;;;10.25;10.00;;;;;;;;4954961;28;45528;-64
2022/08/13 03:30:48;;;;;;;;;6.25;6.25;;;;;;;;4955693;28;45608;-64
2022/08/13 03:33:14;;;;;;;;;8.75;8.75;;;;;;;;4954096;28;45457;-64
2022/08/13 03:35:40;;;;;;;;;7.00;7.00;;;;;;;;4954685;28;45524;-63
2022/08/13 03:38:06;;;;;;;;;6.50;5.75;;;;;;;;4954520;28;45477;-64
2022/08/13 03:43:16;;;;;;;;;6.50;6.25;;;;;;;;4954680;28;45472;-64
2022/08/13 03:45:43;;;;;;;;;6.25;6.25;;;;;;;;4955461;28;45383;-63
2022/08/13 03:48:08;;;;;;;;;9.25;9.25;;;;;;;;4954615;28;45516;-64
2022/08/13 03:50:33;;;;;;;;;7.00;7.00;;;;;;;;4958958;28;45375;-64
2022/08/13 03:53:05;;;;;;;;;7.75;7.75;;;;;;;;4973932;28;45454;-64
2022/08/13 03:55:31;;;;;;;;;5.50;5.50;;;;;;;;4973989;28;45446;-64
2022/08/13 03:57:57;;;;;;;;;8.50;8.50;;;;;;;;4974211;28;45439;-63
2022/08/13 04:00:23;;;;;;;;;7.50;7.50;;;;;;;;4956955;28;45581;-64
2022/08/13 04:02:50;;;;;;;;;6.25;6.00;;;;;;;;4954374;28;46022;-64
2022/08/13 04:05:16;;;;;;;;;10.00;7.25;;;;;;;;4954352;28;45418;-63
2022/08/13 04:07:42;;;;;;;;;9.00;6.75;;;;;;;;4954082;28;45589;-63
2022/08/13 04:10:08;;;;;;;;;6.00;5.50;;;;;;;;4954040;28;45471;-64
2022/08/13 04:12:34;;;;;;;;;9.00;7.75;;;;;;;;4964814;28;45876;-64
2022/08/13 04:15:00;;;;;;;;;7.80;7.20;;;;;;;;4954119;28;45542;-64
2022/08/13 04:17:25;;;;;;;;;8.00;8.00;;;;;;;;4965919;28;45533;-64
2022/08/13 04:19:51;;;;;;;;;6.75;6.75;;;;;;;;4973794;28;45402;-63
2022/08/13 04:22:17;;;;;;;;;5.75;5.75;;;;;;;;4973420;28;46009;-63
2022/08/13 04:24:44;;;;;;;;;7.25;6.25;;;;;;;;4973474;28;45464;-63
2022/08/13 04:27:09;;;;;;;;;5.00;5.00;;;;;;;;5045945;28;45445;-63
2022/08/13 04:29:34;;;;;;;;;6.00;6.00;;;;;;;;5013820;27;45487;-63
2022/08/13 04:32:00;;;;;;;;;7.75;7.75;;;;;;;;4975061;28;45398;-63
2022/08/13 04:34:26;;;;;;;;;7.25;6.00;;;;;;;;4973449;28;45412;-64
2022/08/13 04:36:52;;;;;;;;;7.00;7.00;;;;;;;;4973748;28;45384;-63
2022/08/13 04:39:17;;;;;;;;;7.25;7.25;;;;;;;;4973378;28;45612;-64
2022/08/13 04:41:43;;;;;;;;;7.00;6.75;;;;;;;;4973014;28;45921;-64
2022/08/13 04:44:08;;;;;;;;;8.25;8.25;;;;;;;;4972772;28;45524;-64
2022/08/13 04:46:33;;;;;;;;;8.75;7.00;;;;;;;;4975180;28;45452;-63
2022/08/13 04:48:58;;;;;;;;;7.75;6.25;;;;;;;;4976507;28;45535;-63
2022/08/13 04:51:25;;;;;;;;;7.00;6.00;;;;;;;;4976229;28;46090;-64
2022/08/13 04:53:51;;;;;;;;;7.25;7.25;;;;;;;;4976142;28;45442;-64
2022/08/13 04:56:16;;;;;;;;;8.00;8.00;;;;;;;;4976570;28;45452;-64
2022/08/13 04:58:41;;;;;;;;;6.75;6.75;;;;;;;;4964592;28;45442;-64
2022/08/13 05:01:09;;;;;;;;;7.00;7.00;;;;;;;;4957235;28;45430;-64
2022/08/13 05:03:38;;;;;;;;;6.00;6.00;;;;;;;;4956387;28;45461;-64
2022/08/13 05:06:06;;;;;;;;;7.25;7.25;;;;;;;;4956746;28;45436;-64
2022/08/13 05:08:32;;;;;;;;;9.50;7.75;;;;;;;;4956402;28;45524;-64
2022/08/13 05:10:58;;;;;;;;;5.25;5.25;;;;;;;;4956147;28;47413;-64
2022/08/13 05:13:27;;;;;;;;;7.00;7.00;;;;;;;;4956052;28;45483;-64
2022/08/13 05:16:00;;;;;;;;;5.50;5.50;;;;;;;;4956637;28;45375;-64
2022/08/13 05:18:26;;;;;;;;;7.25;7.25;;;;;;;;4956444;28;45353;-64
2022/08/13 05:20:53;;;;;;;;;6.00;6.00;;;;;;;;4956610;28;46243;-64
2022/08/13 05:23:18;;;;;;;;;6.75;6.00;;;;;;;;4956436;28;45474;-64
2022/08/13 05:25:44;;;;;;;;;8.75;7.00;;;;;;;;4969020;28;45498;-64
2022/08/13 05:28:09;;;;;;;;;6.00;6.00;;;;;;;;4975865;28;45390;-64
2022/08/13 05:30:37;;;;;;;;;7.00;7.00;;;;;;;;4976225;28;46097;-64
2022/08/13 05:33:10;;;;;;;;;5.75;5.75;;;;;;;;4957095;28;45521;-64
2022/08/13 05:35:37;;;;;;;;;6.25;6.00;;;;;;;;4956642;28;45520;-64
2022/08/13 05:38:03;;;;;;;;;8.00;7.00;;;;;;;;4956378;28;45568;-63
2022/08/13 05:40:28;;;;;;;;;8.00;8.00;;;;;;;;4956034;28;45927;-64
2022/08/13 05:42:56;;;;;;;;;6.00;6.00;;;;;;;;4956270;28;45437;-64
2022/08/13 05:45:21;;;;;;;;;6.75;6.75;;;;;;;;4956082;28;45378;-64
2022/08/13 05:47:50;;;;;;;;;6.75;6.75;;;;;;;;4956152;28;45489;-64
2022/08/13 05:50:15;;;;;;;;;4.25;4.00;;;;;;;;4956156;28;45573;-64
2022/08/13 05:52:41;;;;;;;;;8.25;8.25;;;;;;;;4960878;28;45485;-64
2022/08/13 05:55:07;;;;;;;;;9.25;7.25;;;;;;;;4975793;28;45482;-64
2022/08/13 05:57:32;;;;;;;;;7.00;7.00;;;;;;;;4975283;28;45410;-64
2022/08/13 06:05:25;;;;;;;;;8.00;7.00;;;;;;;;4959211;28;45520;-64
2022/08/13 06:07:52;;;;;;;;;7.00;7.00;;;;;;;;4974963;28;45489;-65
2022/08/13 06:10:18;;;;;;;;;6.50;6.25;;;;;;;;4975141;28;45643;-65
2022/08/13 06:12:43;;;;;;;;;8.00;8.00;;;;;;;;4975172;28;45437;-66
2022/08/13 06:15:10;;;;;;;;;7.00;6.25;;;;;;;;4975306;28;45549;-68
2022/08/13 06:17:36;;;;;;;;;6.50;6.50;;;;;;;;4975014;28;45480;-62
2022/08/13 06:20:03;;;;;;;;;6.25;6.25;;;;;;;;4974617;28;45364;-64
2022/08/13 06:22:31;;;;;;;;;6.00;6.00;;;;;;;;4974748;28;45339;-63
2022/08/13 06:24:56;;;;;;;;;7.00;7.00;;;;;;;;4975291;28;45453;-65
2022/08/13 06:27:22;;;;;;;;;5.00;4.75;;;;;;;;4972640;28;45482;-61
2022/08/13 06:29:47;;;;;;;;;6.25;6.25;;;;;;;;4956777;28;45716;-63
2022/08/13 06:32:13;;;;;;;;;5.25;5.25;;;;;;;;4957229;28;45522;-66
2022/08/13 06:34:38;;;;;;;;;8.00;8.00;;;;;;;;4965530;28;45520;-64
2022/08/13 06:37:04;;;;;;;;;6.50;6.00;;;;;;;;4955291;28;45383;-63
2022/08/13 06:39:30;;;;;;;;;6.50;6.50;;;;;;;;4964833;28;46247;-64
2022/08/13 06:41:58;;;;;;;;;7.00;7.00;;;;;;;;4973081;28;45485;-65
2022/08/13 06:44:24;;;;;;;;;8.50;8.00;;;;;;;;4974484;28;45470;-67
2022/08/13 06:46:49;;;;;;;;;8.75;7.00;;;;;;;;4972231;28;45524;-64
2022/08/13 06:49:15;;;;;;;;;7.25;7.25;;;;;;;;4974340;28;46361;-67
2022/08/13 06:51:42;;;;;;;;;7.00;7.00;;;;;;;;4974213;28;45535;-67
2022/08/13 06:54:10;;;;;;;;;6.75;6.75;;;;;;;;4970462;28;45385;-67
2022/08/13 06:56:36;;;;;;;;;7.25;7.25;;;;;;;;4954681;28;45422;-66
2022/08/13 06:59:02;;;;;;;;;7.00;7.00;;;;;;;;4963929;28;45545;-65
2022/08/13 07:01:28;;;;;;;;;8.00;8.00;;;;;;;;4955753;28;45380;-65
2022/08/13 07:03:56;;;;;;;;;7.00;6.50;;;;;;;;4955145;28;45432;-65
2022/08/13 07:06:26;;;;;;;;;6.00;6.00;;;;;;;;4954834;28;45526;-65
2022/08/13 07:08:56;;;;;;;;;7.25;6.25;;;;;;;;4956157;28;45481;-65
2022/08/13 07:11:22;;;;;;;;;6.75;6.75;;;;;;;;4955409;28;45378;-64
2022/08/13 07:13:49;;;;;;;;;6.25;6.25;;;;;;;;4954745;28;45478;-64
2022/08/13 07:16:16;;;;;;;;;8.25;8.00;;;;;;;;4954720;28;45434;-65
2022/08/13 07:18:42;;;;;;;;;8.00;8.00;;;;;;;;4954226;28;45474;-64
2022/08/13 07:21:09;;;;;;;;;7.00;7.00;;;;;;;;4954525;28;45502;-64
2022/08/13 07:23:38;;;;;;;;;6.00;6.00;;;;;;;;4953518;28;45477;-64
2022/08/13 07:26:05;;;;;;;;;7.00;7.00;;;;;;;;4954638;28;45356;-64
2022/08/13 07:28:30;;;;;;;;;6.00;6.00;;;;;;;;4954456;28;46326;-64
2022/08/13 07:30:56;;;;;;;;;7.75;7.75;;;;;;;;4955051;28;45351;-64
2022/08/13 07:33:22;;;;;;;;;7.00;7.00;;;;;;;;4954477;28;45342;-64
2022/08/13 07:35:47;;;;;;;;;6.00;6.00;;;;;;;;4954387;28;45371;-64
2022/08/13 07:38:13;;;;;;;;;6.75;6.75;;;;;;;;4954247;28;46035;-64
2022/08/13 07:40:39;;;;;;;;;6.50;6.50;;;;;;;;4954174;28;45360;-64
2022/08/13 07:43:06;;;;;;;;;8.00;6.00;;;;;;;;4974019;28;45435;-71
2022/08/13 07:45:32;;;;;;;;;7.00;7.00;;;;;;;;4962752;28;45511;-70
2022/08/13 07:47:58;;;;;;;;;6.00;6.00;;;;;;;;4954662;28;46207;-69
2022/08/13 07:50:24;;;;;;;;;6.50;6.50;;;;;;;;4954389;28;45532;-66
2022/08/13 07:52:58;;;;;;;;;8.75;7.00;;;;;;;;4954802;28;45575;-65
2022/08/13 07:55:25;;;;;;;;;5.50;5.50;;;;;;;;4963485;28;45458;-64
2022/08/13 07:57:51;;;;;;;;;8.25;7.00;;;;;;;;4963849;28;45614;-68
2022/08/13 08:00:25;;;;;;;;;7.00;7.00;;;;;;;;4963469;28;45604;-72
2022/08/13 08:03:01;;;;;;;;;7.25;7.00;;;;;;;;4956393;28;45491;-72
2022/08/13 08:05:28;;;;;;;;;6.25;6.25;;;;;;;;4970968;28;45634;-63
2022/08/13 08:07:53;;;;;;;;;8.25;6.75;;;;;;;;4971532;28;46511;-67
2022/08/13 08:10:20;;;;;;;;;8.00;8.00;;;;;;;;4968744;28;45402;-64
2022/08/13 08:12:45;;;;;;;;;6.75;6.50;;;;;;;;4973279;28;45328;-66
2022/08/13 08:15:11;;;;;;;;;7.00;7.00;;;;;;;;4973101;28;45427;-62
2022/08/13 08:17:36;;;;;;;;;8.00;7.00;;;;;;;;4971530;28;46274;-68
2022/08/13 08:20:02;;;;;;;;;6.00;6.00;;;;;;;;4974406;28;45430;-70
2022/08/13 08:22:28;;;;;;;;;5.00;5.00;;;;;;;;4976025;28;45415;-64
2022/08/13 08:24:53;;;;;;;;;5.00;5.00;;;;;;;;4975929;28;45485;-65
2022/08/13 08:27:19;;;;;;;;;6.25;6.25;;;;;;;;4975692;28;45524;-67
2022/08/13 08:29:46;;;;;;;;;24.33;21.67;;;;;;;;4976261;28;45458;-64
2022/08/13 08:32:12;;;;;;;;;5.00;5.00;;;;;;;;4976615;28;45383;-64
2022/08/13 08:34:40;;;;;;;;;5.00;5.00;;;;;;;;4976062;28;45377;-69
2022/08/13 08:37:06;;;;;;;;;23.25;21.50;;;;;;;;4975899;28;46520;-65
2022/08/13 08:45:03;;;;;;;;;8.00;7.25;;;;;;;;4975886;28;45515;-66
2022/08/13 08:47:32;;;;;;;;;6.75;6.75;;;;;;;;4975700;28;45448;-67
2022/08/13 08:49:58;;;;;;;;;5.00;5.00;;;;;;;;4975713;28;45446;-63
2022/08/13 08:53:19;;;;;;;;;4.00;4.00;;;;;;;;4975988;28;45457;-67
2022/08/13 08:55:10;;;;;;;;;5.75;5.75;;;;;;;;4975759;28;45481;-65
2022/08/13 08:57:36;;;;;;;;;6.00;6.00;;;;;;;;4975765;28;45596;-69
2022/08/13 09:00:05;;;;;;;;;3.80;3.80;;;;;;;;4975658;28;45500;-68
2022/08/13 09:02:33;;;;;;;;;6.50;6.00;;;;;;;;4975906;28;45279;-68
2022/08/13 09:04:59;;;;;;;;;5.00;5.00;;;;;;;;4975803;28;45610;-63
2022/08/13 09:07:25;;;;;;;;;6.00;6.00;;;;;;;;4975538;28;45409;-65
2022/08/13 09:09:54;;;;;;;;;4.00;4.00;;;;;;;;4975583;28;45366;-65
2022/08/13 09:12:23;;;;;;;;;5.00;4.75;;;;;;;;4975691;28;45484;-65
2022/08/13 09:14:49;;;;;;;;;5.00;4.00;;;;;;;;4975160;28;45629;-65
2022/08/13 09:17:15;;;;;;;;;4.25;4.25;;;;;;;;4975184;28;45477;-69
2022/08/13 09:19:41;;;;;;;;;7.50;7.50;;;;;;;;4975705;28;45497;-66
2022/08/13 09:22:06;;;;;;;;;7.00;6.80;;;;;;;;4975084;28;45501;-72
2022/08/13 09:24:32;;;;;;;;;5.00;5.00;;;;;;;;4975438;28;45407;-70
2022/08/13 09:26:59;;;;;;;;;4.00;4.00;;;;;;;;4975349;28;45865;-65
2022/08/13 09:29:24;;;;;;;;;5.60;4.20;;;;;;;;4975318;28;45438;-67
2022/08/13 09:31:50;;;;;;;;;7.00;5.75;;;;;;;;4975245;28;45422;-69
2022/08/13 09:34:16;;;;;;;;;3.00;3.00;;;;;;;;4975353;28;45594;-71
2022/08/13 09:36:41;;;;;;;;;4.00;4.00;;;;;;;;4975143;28;46062;-66
2022/08/13 09:39:08;;;;;;;;;5.50;5.50;;;;;;;;4973853;28;45382;-70
2022/08/13 09:41:37;;;;;;;;;5.20;3.80;;;;;;;;4975415;28;45376;-67
2022/08/13 09:44:04;;;;;;;;;5.00;5.00;;;;;;;;4975246;28;45426;-69
2022/08/13 09:46:30;;;;;;;;;2.00;2.00;;;;;;;;4973327;28;45684;-70
2022/08/13 09:48:55;;;;;;;;;2.60;2.60;;;;;;;;4975271;28;45419;-64
2022/08/13 09:51:21;;;;;;;;;5.50;4.00;;;;;;;;4975254;28;45500;-64
2022/08/13 09:53:47;;;;;;;;;5.25;5.25;;;;;;;;4975269;28;45430;-69
2022/08/13 09:56:17;;;;;;;;;5.00;5.00;;;;;;;;4975069;28;45371;-69
2022/08/13 09:58:43;;;;;;;;;5.50;5.50;;;;;;;;4973542;28;45306;-67
2022/08/13 10:01:09;;;;;;;;;5.00;5.00;;;;;;;;4975109;28;45415;-67
2022/08/13 10:03:38;;;;;;;;;5.00;5.00;;;;;;;;4974851;28;45532;-65
2022/08/13 10:06:05;;;;;;;;;6.75;5.25;;;;;;;;4974771;28;46174;-68
2022/08/13 10:08:30;;;;;;;;;6.80;6.80;;;;;;;;4974825;28;45406;-68
2022/08/13 10:10:55;;;;;;;;;5.00;5.00;;;;;;;;4974943;28;45625;-64
2022/08/13 10:13:21;;;;;;;;;5.00;5.00;;;;;;;;4974726;28;45397;-65
2022/08/13 10:15:46;;;;;;;;;3.25;3.25;;;;;;;;4974651;28;45437;-63
2022/08/13 10:18:11;;;;;;;;;2.50;2.50;;;;;;;;4974620;28;45461;-69
2022/08/13 10:20:38;;;;;;;;;3.25;3.25;;;;;;;;4975038;28;45449;-67
2022/08/13 10:23:04;;;;;;;;;5.00;5.00;;;;;;;;4974873;28;45561;-64
2022/08/13 10:25:30;;;;;;;;;4.75;4.75;;;;;;;;4973463;28;47440;-64
2022/08/13 10:27:55;;;;;;;;;3.25;3.25;;;;;;;;4974710;28;45530;-70
2022/08/13 10:30:24;;;;;;;;;4.75;4.75;;;;;;;;4974863;28;45451;-62
2022/08/13 10:32:50;;;;;;;;;4.00;4.00;;;;;;;;4973406;28;45656;-64
2022/08/13 10:35:17;;;;;;;;;5.50;5.50;;;;;;;;4974387;28;45438;-66
2022/08/13 10:37:46;;;;;;;;;3.60;3.60;;;;;;;;4974672;28;45549;-67
2022/08/13 10:40:14;;;;;;;;;4.80;4.80;;;;;;;;4974446;28;45486;-64
2022/08/13 10:42:40;;;;;;;;;4.50;4.50;;;;;;;;4973920;28;45565;-66
2022/08/13 10:45:06;;;;;;;;;5.40;5.00;;;;;;;;4971926;28;47305;-62
2022/08/13 10:47:31;;;;;;;;;5.25;5.25;;;;;;;;4974683;28;45525;-70
2022/08/13 10:49:57;;;;;;;;;3.75;3.75;;;;;;;;4974621;28;46118;-67
2022/08/13 10:52:24;;;;;;;;;4.50;4.50;;;;;;;;4974405;28;45475;-65
2022/08/13 10:54:49;;;;;;;;;4.00;4.00;;;;;;;;4974219;28;46195;-71
2022/08/13 10:57:14;;;;;;;;;4.50;4.50;;;;;;;;4974112;28;45541;-68
2022/08/13 10:59:43;;;;;;;;;5.00;5.00;;;;;;;;4974417;28;45482;-70
2022/08/13 11:02:10;;;;;;;;;5.00;5.00;;;;;;;;4974453;28;45606;-66
2022/08/13 11:04:36;;;;;;;;;3.75;3.75;;;;;;;;4974062;28;45369;-66
2022/08/13 11:07:02;;;;;;;;;4.00;3.60;;;;;;;;4972653;28;45480;-63
2022/08/13 11:09:27;;;;;;;;;4.75;4.75;;;;;;;;4974111;28;45350;-68
2022/08/13 11:11:55;;;;;;;;;5.50;5.50;;;;;;;;4974336;28;45457;-62
2022/08/13 11:14:20;;;;;;;;;3.80;3.80;;;;;;;;4973853;28;45988;-67
2022/08/13 11:19:19;;;;;;;;;2.75;2.75;;;;;;;;4974093;28;45344;-64
2022/08/13 11:21:45;;;;;;;;;4.00;4.00;;;;;;;;4974053;28;45437;-65
2022/08/13 11:24:11;;;;;;;;;3.50;3.50;;;;;;;;4973792;28;45458;-66
2022/08/13 11:26:37;;;;;;;;;6.00;6.00;;;;;;;;4973853;28;45435;-65
2022/08/13 11:29:03;;;;;;;;;6.00;5.00;;;;;;;;4974135;28;45400;-67
2022/08/13 11:31:28;;;;;;;;;3.50;3.50;;;;;;;;4974511;28;45379;-66
2022/08/13 11:33:53;;;;;;;;;4.00;4.00;;;;;;;;4972271;28;45480;-67
2022/08/13 11:36:18;;;;;;;;;4.00;4.00;;;;;;;;4973740;28;45507;-66
2022/08/13 11:38:43;;;;;;;;;3.00;3.00;;;;;;;;4974203;28;45556;-67
2022/08/13 11:41:08;;;;;;;;;4.00;4.00;;;;;;;;4974010;28;45523;-71
2022/08/13 11:43:34;;;;;;;;;4.50;4.50;;;;;;;;4973933;28;46142;-64
2022/08/13 11:45:59;;;;;;;;;3.50;3.50;;;;;;;;4973936;28;45501;-67
2022/08/13 11:48:25;;;;;;;;;4.00;4.00;;;;;;;;4973976;28;45319;-66
2022/08/13 11:50:51;;;;;;;;;4.00;4.00;;;;;;;;4974044;28;45344;-67
2022/08/13 11:53:17;;;;;;;;;23.50;22.50;;;;;;;;4973300;28;45461;-67
2022/08/13 11:55:42;;;;;;;;;3.25;3.25;;;;;;;;4973753;28;45414;-62
2022/08/13 11:58:08;;;;;;;;;4.00;3.00;;;;;;;;4974186;28;45495;-64
2022/08/13 12:00:34;;;;;;;;;2.60;2.60;;;;;;;;4974426;28;45411;-66
2022/08/13 12:02:59;;;;;;;;;4.00;4.00;;;;;;;;4973714;28;45514;-66
2022/08/13 12:05:24;;;;;;;;;3.00;3.00;;;;;;;;4973691;28;45415;-65
2022/08/13 12:07:50;;;;;;;;;5.25;4.00;;;;;;;;4973686;28;45549;-67
2022/08/13 12:10:16;;;;;;;;;4.25;3.00;;;;;;;;4973639;28;45444;-64
2022/08/13 12:12:41;;;;;;;;;2.20;2.20;;;;;;;;4972902;28;45398;-63
2022/08/13 12:15:07;;;;;;;;;3.00;3.00;;;;;;;;4973401;28;45636;-66
2022/08/13 12:17:32;;;;;;;;;3.00;3.00;;;;;;;;4973265;28;45509;-68
2022/08/13 12:19:58;;;;;;;;;2.00;2.00;;;;;;;;4973143;28;45647;-67
2022/08/13 12:22:23;;;;;;;;;4.25;4.25;;;;;;;;4972991;28;46085;-64
2022/08/13 12:24:48;;;;;;;;;4.00;4.00;;;;;;;;4973342;28;45490;-67
2022/08/13 12:27:13;;;;;;;;;4.00;4.00;;;;;;;;4973400;28;45596;-65
2022/08/13 12:29:39;;;;;;;;;3.25;3.25;;;;;;;;4973120;28;45388;-65
2022/08/13 12:32:04;;;;;;;;;3.25;3.00;;;;;;;;4973506;28;45409;-68
2022/08/13 12:34:29;;;;;;;;;4.00;4.00;;;;;;;;4972843;28;45396;-68
2022/08/13 12:36:55;;;;;;;;;2.25;2.25;;;;;;;;4973121;28;45359;-66
2022/08/13 12:39:20;;;;;;;;;3.25;2.50;;;;;;;;4973004;28;45292;-65
2022/08/13 12:41:45;;;;;;;;;2.50;2.50;;;;;;;;4972649;28;46651;-64
2022/08/13 12:44:11;;;;;;;;;3.25;3.25;;;;;;;;4972849;28;45326;-66
2022/08/13 12:46:36;;;;;;;;;3.00;3.00;;;;;;;;4973021;28;45432;-67
2022/08/13 12:49:05;;;;;;;;;3.00;3.00;;;;;;;;4972707;28;45516;-70
2022/08/13 12:51:30;;;;;;;;;5.00;4.20;;;;;;;;4972832;28;45538;-66
2022/08/13 12:53:55;;;;;;;;;2.50;2.50;;;;;;;;4972454;28;45582;-67
2022/08/13 12:56:20;;;;;;;;;3.00;3.00;;;;;;;;4972687;28;45420;-64
2022/08/13 12:58:45;;;;;;;;;2.00;2.00;;;;;;;;4972631;28;45473;-68
2022/08/13 13:01:11;;;;;;;;;3.00;3.00;;;;;;;;4972500;28;45460;-65
2022/08/13 13:03:36;;;;;;;;;3.25;3.25;;;;;;;;4972476;28;45442;-67
2022/08/13 13:06:01;;;;;;;;;2.00;2.00;;;;;;;;4972672;28;45466;-67
2022/08/13 13:08:30;;;;;;;;;4.00;4.00;;;;;;;;4975624;28;45486;-63
2022/08/13 13:10:56;;;;;;;;;2.80;2.80;;;;;;;;4975465;28;45507;-64
2022/08/13 13:13:26;;;;;;;;;3.00;3.00;;;;;;;;4975644;28;45436;-70
2022/08/13 13:15:52;;;;;;;;;3.20;3.20;;;;;;;;4975573;28;45516;-65
2022/08/13 13:18:19;;;;;;;;;1.75;1.75;;;;;;;;4975450;28;45528;-67
2022/08/13 13:20:45;;;;;;;;;2.80;2.80;;;;;;;;4975246;28;45426;-66
2022/08/13 13:23:12;;;;;;;;;2.20;2.20;;;;;;;;4975280;28;45375;-69
2022/08/13 13:25:40;;;;;;;;;0.80;0.80;;;;;;;;4975544;28;45387;-66
2022/08/13 13:28:06;;;;;;;;;3.00;3.00;;;;;;;;4975172;28;45620;-65
2022/08/13 13:30:32;;;;;;;;;2.60;2.60;;;;;;;;4975074;28;46073;-65
2022/08/13 13:32:58;;;;;;;;;2.75;2.75;;;;;;;;4975518;28;45774;-66
2022/08/13 13:35:23;;;;;;;;;1.80;1.80;;;;;;;;4975441;28;45347;-68
2022/08/13 13:37:49;;;;;;;;;3.00;2.00;;;;;;;;4975233;28;45355;-63
2022/08/13 13:40:14;;;;;;;;;1.75;1.75;;;;;;;;4975070;28;45442;-69
2022/08/13 13:42:41;;;;;;;;;3.00;3.00;;;;;;;;4975269;28;45441;-67
2022/08/13 13:45:06;;;;;;;;;2.80;2.80;;;;;;;;4975167;28;45449;-65
2022/08/13 13:47:32;;;;;;;;;3.75;2.75;;;;;;;;4975256;28;45509;-68
2022/08/13 13:49:57;;;;;;;;;2.75;2.75;;;;;;;;4975214;28;46024;-67
2022/08/13 13:52:22;;;;;;;;;1.50;1.50;;;;;;;;4974951;28;45537;-65
2022/08/13 13:54:49;;;;;;;;;3.00;3.00;;;;;;;;4975089;28;45394;-64
2022/08/13 13:57:15;;;;;;;;;2.80;2.80;;;;;;;;4975311;28;45576;-67
2022/08/13 13:59:40;;;;;;;;;4.00;2.75;;;;;;;;4974963;28;45506;-66
2022/08/13 14:02:05;;;;;;;;;2.00;2.00;;;;;;;;4975195;28;45616;-67
2022/08/13 14:04:30;;;;;;;;;2.75;2.75;;;;;;;;4975046;28;45471;-64
2022/08/13 14:07:02;;;;;;;;;2.50;2.25;;;;;;;;4975236;28;45442;-68
2022/08/13 14:09:28;;;;;;;;;3.80;3.80;;;;;;;;4974691;28;46239;-69
2022/08/13 14:11:55;;;;;;;;;2.25;2.25;;;;;;;;4974885;28;45482;-68
2022/08/13 14:14:21;;;;;;;;;1.80;1.80;;;;;;;;4974345;28;45419;-65
2022/08/13 14:16:46;;;;;;;;;2.00;2.00;;;;;;;;4974869;28;45476;-67
2022/08/13 14:19:12;;;;;;;;;2.25;1.75;;;;;;;;4974456;28;46291;-66
2022/08/13 14:21:38;;;;;;;;;1.75;1.75;;;;;;;;4974548;28;45470;-66
2022/08/13 14:24:04;;;;;;;;;1.80;1.80;;;;;;;;4974634;28;45437;-65
2022/08/13 14:26:30;;;;;;;;;3.25;2.75;;;;;;;;4974818;28;45554;-65
2022/08/13 14:28:56;;;;;;;;;2.00;2.00;;;;;;;;4973182;28;46154;-70
2022/08/13 14:31:22;;;;;;;;;26.00;24.00;;;;;;;;4974754;28;45635;-63
2022/08/13 14:33:48;;;;;;;;;2.75;2.75;;;;;;;;4975206;28;45422;-64
2022/08/13 14:36:15;;;;;;;;;1.75;1.75;;;;;;;;4974515;28;45402;-66
2022/08/13 14:38:41;;;;;;;;;2.00;2.00;;;;;;;;4974661;28;45523;-66
2022/08/13 14:41:06;;;;;;;;;3.00;3.00;;;;;;;;4974545;28;45450;-64
2022/08/13 14:43:31;;;;;;;;;1.75;1.75;;;;;;;;4974558;28;45433;-67
2022/08/13 14:45:57;;;;;;;;;2.00;2.00;;;;;;;;4974592;28;45523;-70
2022/08/13 14:48:23;;;;;;;;;1.00;1.00;;;;;;;;4974309;28;46067;-68
2022/08/13 14:50:50;;;;;;;;;1.80;1.80;;;;;;;;4974278;28;45453;-68
2022/08/13 14:53:15;;;;;;;;;4.80;4.80;;;;;;;;4974341;28;45368;-68
2022/08/13 14:55:41;;;;;;;;;3.75;3.75;;;;;;;;4974290;28;45392;-68
2022/08/13 14:58:07;;;;;;;;;2.50;2.50;;;;;;;;4972833;28;47896;-70